sensor_id;sensor_type;location;lat;lon;timestamp;P1;durP1;ratioP1;P2;durP2;ratioP2
31438;SDS011;18062;48.872;9.220;2024-03-25T00:02:16;3.00;;;1.53;;
31438;SDS011;18062;48.872;9.220;2024-03-25T00:04:42;1.77;;;1.40;;
31438;SDS011;18062;48.872;9.220;2024-03-25T00:07:09;2.30;;;1.80;;
31438;SDS011;18062;48.872;9.220;2024-03-25T00:09:34;4.33;;;1.60;;
31438;SDS011;18062;48.872;9.220;2024-03-25T00:12:00;2.20;;;1.43;;
31438;SDS011;18062;48.872;9.220;2024-03-25T00:14:29;2.20;;;1.40;;
31438;SDS011;18062;48.872;9.220;2024-03-25T00:16:55;3.23;;;1.77;;
31438;SDS011;18062;48.872;9.220;2024-03-25T00:19:21;2.27;;;1.70;;
31438;SDS011;18062;48.872;9.220;2024-03-25T00:21:47;1.80;;;1.40;;
31438;SDS011;18062;48.872;9.220;2024-03-25T00:24:14;2.63;;;1.53;;
31438;SDS011;18062;48.872;9.220;2024-03-25T00:26:40;2.97;;;1.70;;
31438;SDS011;18062;48.872;9.220;2024-03-25T00:29:05;2.57;;;1.37;;
31438;SDS011;18062;48.872;9.220;2024-03-25T00:31:31;2.37;;;1.50;;
31438;SDS011;18062;48.872;9.220;2024-03-25T00:33:57;2.20;;;1.63;;
31438;SDS011;18062;48.872;9.220;2024-03-25T00:36:23;3.13;;;1.70;;
31438;SDS011;18062;48.872;9.220;2024-03-25T00:38:49;4.13;;;1.90;;
31438;SDS011;18062;48.872;9.220;2024-03-25T00:41:15;1.63;;;1.53;;
31438;SDS011;18062;48.872;9.220;2024-03-25T00:43:42;4.80;;;1.80;;
31438;SDS011;18062;48.872;9.220;2024-03-25T00:46:08;6.27;;;2.00;;
31438;SDS011;18062;48.872;9.220;2024-03-25T00:48:34;3.50;;;1.57;;
31438;SDS011;18062;48.872;9.220;2024-03-25T00:51:02;3.97;;;1.53;;
31438;SDS011;18062;48.872;9.220;2024-03-25T00:53:28;2.97;;;1.60;;
31438;SDS011;18062;48.872;9.220;2024-03-25T00:55:54;3.47;;;1.70;;
31438;SDS011;18062;48.872;9.220;2024-03-25T00:58:20;4.67;;;1.50;;
31438;SDS011;18062;48.872;9.220;2024-03-25T01:00:46;1.60;;;1.50;;
31438;SDS011;18062;48.872;9.220;2024-03-25T01:03:12;3.33;;;1.50;;
31438;SDS011;18062;48.872;9.220;2024-03-25T01:05:38;2.70;;;1.80;;
31438;SDS011;18062;48.872;9.220;2024-03-25T01:08:04;4.13;;;1.70;;
31438;SDS011;18062;48.872;9.220;2024-03-25T01:10:30;4.27;;;1.80;;
31438;SDS011;18062;48.872;9.220;2024-03-25T01:12:59;2.23;;;1.60;;
31438;SDS011;18062;48.872;9.220;2024-03-25T01:15:25;2.83;;;1.57;;
31438;SDS011;18062;48.872;9.220;2024-03-25T01:17:51;2.90;;;2.10;;
31438;SDS011;18062;48.872;9.220;2024-03-25T01:20:17;4.73;;;1.70;;
31438;SDS011;18062;48.872;9.220;2024-03-25T01:22:43;1.50;;;1.40;;
31438;SDS011;18062;48.872;9.220;2024-03-25T01:25:09;2.30;;;1.60;;
31438;SDS011;18062;48.872;9.220;2024-03-25T01:27:35;3.03;;;1.20;;
31438;SDS011;18062;48.872;9.220;2024-03-25T01:30:01;3.20;;;1.30;;
31438;SDS011;18062;48.872;9.220;2024-03-25T01:32:29;2.37;;;1.53;;
31438;SDS011;18062;48.872;9.220;2024-03-25T01:34:55;3.83;;;1.80;;
31438;SDS011;18062;48.872;9.220;2024-03-25T01:37:21;2.63;;;2.00;;
31438;SDS011;18062;48.872;9.220;2024-03-25T01:39:50;2.33;;;1.60;;
31438;SDS011;18062;48.872;9.220;2024-03-25T01:42:16;2.83;;;1.50;;
31438;SDS011;18062;48.872;9.220;2024-03-25T01:44:42;1.97;;;1.50;;
31438;SDS011;18062;48.872;9.220;2024-03-25T01:47:08;3.27;;;1.60;;
31438;SDS011;18062;48.872;9.220;2024-03-25T01:49:34;1.93;;;1.60;;
31438;SDS011;18062;48.872;9.220;2024-03-25T01:52:00;1.77;;;1.50;;
31438;SDS011;18062;48.872;9.220;2024-03-25T01:54:26;2.03;;;1.40;;
31438;SDS011;18062;48.872;9.220;2024-03-25T01:56:52;2.00;;;1.47;;
31438;SDS011;18062;48.872;9.220;2024-03-25T01:59:20;2.43;;;1.60;;
31438;SDS011;18062;48.872;9.220;2024-03-25T02:01:47;3.17;;;1.67;;
31438;SDS011;18062;48.872;9.220;2024-03-25T02:04:13;1.80;;;1.50;;
31438;SDS011;18062;48.872;9.220;2024-03-25T02:06:40;5.03;;;1.67;;
31438;SDS011;18062;48.872;9.220;2024-03-25T02:09:07;2.50;;;1.60;;
31438;SDS011;18062;48.872;9.220;2024-03-25T02:11:33;3.97;;;1.50;;
31438;SDS011;18062;48.872;9.220;2024-03-25T02:14:00;3.77;;;1.83;;
31438;SDS011;18062;48.872;9.220;2024-03-25T02:16:26;2.63;;;1.40;;
31438;SDS011;18062;48.872;9.220;2024-03-25T02:18:52;2.83;;;1.40;;
31438;SDS011;18062;48.872;9.220;2024-03-25T02:21:18;1.90;;;1.40;;
31438;SDS011;18062;48.872;9.220;2024-03-25T02:23:44;1.73;;;1.53;;
31438;SDS011;18062;48.872;9.220;2024-03-25T02:26:11;2.60;;;1.63;;
31438;SDS011;18062;48.872;9.220;2024-03-25T02:28:37;2.67;;;1.53;;
31438;SDS011;18062;48.872;9.220;2024-03-25T02:31:06;1.80;;;1.50;;
31438;SDS011;18062;48.872;9.220;2024-03-25T02:33:32;1.90;;;1.30;;
31438;SDS011;18062;48.872;9.220;2024-03-25T02:35:58;1.47;;;1.00;;
31438;SDS011;18062;48.872;9.220;2024-03-25T02:38:24;3.83;;;1.57;;
31438;SDS011;18062;48.872;9.220;2024-03-25T02:40:50;1.47;;;1.10;;
31438;SDS011;18062;48.872;9.220;2024-03-25T02:43:16;2.93;;;1.50;;
31438;SDS011;18062;48.872;9.220;2024-03-25T02:45:44;1.83;;;1.47;;
31438;SDS011;18062;48.872;9.220;2024-03-25T02:48:10;2.50;;;1.60;;
31438;SDS011;18062;48.872;9.220;2024-03-25T02:50:36;2.20;;;1.70;;
31438;SDS011;18062;48.872;9.220;2024-03-25T02:53:02;3.03;;;1.53;;
31438;SDS011;18062;48.872;9.220;2024-03-25T02:55:28;2.30;;;1.73;;
31438;SDS011;18062;48.872;9.220;2024-03-25T02:57:54;3.70;;;1.70;;
31438;SDS011;18062;48.872;9.220;2024-03-25T03:00:20;2.60;;;2.00;;
31438;SDS011;18062;48.872;9.220;2024-03-25T03:02:46;2.70;;;1.70;;
31438;SDS011;18062;48.872;9.220;2024-03-25T03:05:12;1.80;;;1.40;;
31438;SDS011;18062;48.872;9.220;2024-03-25T03:07:38;2.93;;;1.23;;
31438;SDS011;18062;48.872;9.220;2024-03-25T03:10:04;4.20;;;1.70;;
31438;SDS011;18062;48.872;9.220;2024-03-25T03:12:30;4.00;;;1.33;;
31438;SDS011;18062;48.872;9.220;2024-03-25T03:14:56;2.03;;;1.50;;
31438;SDS011;18062;48.872;9.220;2024-03-25T03:17:22;1.77;;;1.40;;
31438;SDS011;18062;48.872;9.220;2024-03-25T03:19:48;1.50;;;1.40;;
31438;SDS011;18062;48.872;9.220;2024-03-25T03:22:14;2.27;;;1.50;;
31438;SDS011;18062;48.872;9.220;2024-03-25T03:24:40;2.57;;;1.60;;
31438;SDS011;18062;48.872;9.220;2024-03-25T03:27:06;2.73;;;1.47;;
31438;SDS011;18062;48.872;9.220;2024-03-25T03:29:32;2.13;;;1.53;;
31438;SDS011;18062;48.872;9.220;2024-03-25T03:31:58;2.30;;;1.50;;
31438;SDS011;18062;48.872;9.220;2024-03-25T03:34:25;1.50;;;1.40;;
31438;SDS011;18062;48.872;9.220;2024-03-25T03:36:51;3.93;;;1.37;;
31438;SDS011;18062;48.872;9.220;2024-03-25T03:39:17;1.93;;;1.53;;
31438;SDS011;18062;48.872;9.220;2024-03-25T03:41:43;3.67;;;1.80;;
31438;SDS011;18062;48.872;9.220;2024-03-25T03:44:09;1.57;;;1.30;;
31438;SDS011;18062;48.872;9.220;2024-03-25T03:46:35;4.20;;;1.60;;
31438;SDS011;18062;48.872;9.220;2024-03-25T03:49:01;4.40;;;1.77;;
31438;SDS011;18062;48.872;9.220;2024-03-25T03:51:27;2.23;;;1.57;;
31438;SDS011;18062;48.872;9.220;2024-03-25T03:53:53;2.33;;;1.70;;
31438;SDS011;18062;48.872;9.220;2024-03-25T03:56:19;3.87;;;2.17;;
31438;SDS011;18062;48.872;9.220;2024-03-25T03:58:45;3.13;;;1.67;;
31438;SDS011;18062;48.872;9.220;2024-03-25T04:01:14;2.97;;;2.00;;
31438;SDS011;18062;48.872;9.220;2024-03-25T04:03:41;3.20;;;1.67;;
31438;SDS011;18062;48.872;9.220;2024-03-25T04:06:07;1.97;;;1.73;;
31438;SDS011;18062;48.872;9.220;2024-03-25T04:08:33;3.97;;;1.80;;
31438;SDS011;18062;48.872;9.220;2024-03-25T04:11:01;5.47;;;1.70;;
31438;SDS011;18062;48.872;9.220;2024-03-25T04:13:27;3.60;;;2.10;;
31438;SDS011;18062;48.872;9.220;2024-03-25T04:15:53;4.30;;;1.90;;
31438;SDS011;18062;48.872;9.220;2024-03-25T04:18:19;2.80;;;1.93;;
31438;SDS011;18062;48.872;9.220;2024-03-25T04:20:45;2.87;;;2.17;;
31438;SDS011;18062;48.872;9.220;2024-03-25T04:23:11;4.00;;;2.30;;
31438;SDS011;18062;48.872;9.220;2024-03-25T04:25:37;5.23;;;2.10;;
31438;SDS011;18062;48.872;9.220;2024-03-25T04:28:04;3.93;;;2.23;;
31438;SDS011;18062;48.872;9.220;2024-03-25T04:30:31;4.30;;;2.07;;
31438;SDS011;18062;48.872;9.220;2024-03-25T04:32:58;3.80;;;1.93;;
31438;SDS011;18062;48.872;9.220;2024-03-25T04:35:24;3.27;;;2.17;;
31438;SDS011;18062;48.872;9.220;2024-03-25T04:37:50;2.40;;;1.80;;
31438;SDS011;18062;48.872;9.220;2024-03-25T04:40:16;2.90;;;2.10;;
31438;SDS011;18062;48.872;9.220;2024-03-25T04:42:44;3.90;;;2.00;;
31438;SDS011;18062;48.872;9.220;2024-03-25T04:45:10;3.87;;;1.90;;
31438;SDS011;18062;48.872;9.220;2024-03-25T04:47:37;5.00;;;2.10;;
31438;SDS011;18062;48.872;9.220;2024-03-25T04:50:03;3.80;;;1.97;;
31438;SDS011;18062;48.872;9.220;2024-03-25T04:52:30;2.27;;;1.83;;
31438;SDS011;18062;48.872;9.220;2024-03-25T04:54:56;2.33;;;1.90;;
31438;SDS011;18062;48.872;9.220;2024-03-25T04:57:22;2.57;;;2.17;;
31438;SDS011;18062;48.872;9.220;2024-03-25T04:59:48;1.83;;;1.50;;
31438;SDS011;18062;48.872;9.220;2024-03-25T05:02:14;2.77;;;1.53;;
31438;SDS011;18062;48.872;9.220;2024-03-25T05:04:40;2.60;;;1.70;;
31438;SDS011;18062;48.872;9.220;2024-03-25T05:07:06;4.13;;;2.10;;
31438;SDS011;18062;48.872;9.220;2024-03-25T05:09:32;4.07;;;2.00;;
31438;SDS011;18062;48.872;9.220;2024-03-25T05:11:58;2.70;;;1.73;;
31438;SDS011;18062;48.872;9.220;2024-03-25T05:14:24;5.53;;;1.90;;
31438;SDS011;18062;48.872;9.220;2024-03-25T05:16:50;2.67;;;1.70;;
31438;SDS011;18062;48.872;9.220;2024-03-25T05:19:17;2.43;;;1.83;;
31438;SDS011;18062;48.872;9.220;2024-03-25T05:21:43;9.17;;;2.40;;
31438;SDS011;18062;48.872;9.220;2024-03-25T05:24:09;5.33;;;2.10;;
31438;SDS011;18062;48.872;9.220;2024-03-25T05:26:36;3.97;;;2.00;;
31438;SDS011;18062;48.872;9.220;2024-03-25T05:29:02;2.40;;;1.57;;
31438;SDS011;18062;48.872;9.220;2024-03-25T05:31:28;5.70;;;1.70;;
31438;SDS011;18062;48.872;9.220;2024-03-25T05:33:54;2.40;;;1.60;;
31438;SDS011;18062;48.872;9.220;2024-03-25T05:36:20;5.03;;;2.53;;
31438;SDS011;18062;48.872;9.220;2024-03-25T05:38:46;3.73;;;2.60;;
31438;SDS011;18062;48.872;9.220;2024-03-25T05:41:12;5.50;;;2.53;;
31438;SDS011;18062;48.872;9.220;2024-03-25T05:43:38;5.07;;;1.80;;
31438;SDS011;18062;48.872;9.220;2024-03-25T05:46:04;3.37;;;2.10;;
31438;SDS011;18062;48.872;9.220;2024-03-25T05:48:30;2.80;;;1.97;;
31438;SDS011;18062;48.872;9.220;2024-03-25T05:51:05;2.97;;;1.90;;
31438;SDS011;18062;48.872;9.220;2024-03-25T05:53:35;2.80;;;2.00;;
31438;SDS011;18062;48.872;9.220;2024-03-25T05:56:03;2.23;;;1.87;;
31438;SDS011;18062;48.872;9.220;2024-03-25T05:58:29;1.73;;;1.63;;
31438;SDS011;18062;48.872;9.220;2024-03-25T06:00:55;2.50;;;2.03;;
31438;SDS011;18062;48.872;9.220;2024-03-25T06:03:21;4.33;;;2.40;;
31438;SDS011;18062;48.872;9.220;2024-03-25T06:05:47;2.40;;;2.10;;
31438;SDS011;18062;48.872;9.220;2024-03-25T06:08:14;2.77;;;2.03;;
31438;SDS011;18062;48.872;9.220;2024-03-25T06:10:49;3.67;;;1.80;;
31438;SDS011;18062;48.872;9.220;2024-03-25T06:13:15;2.43;;;1.70;;
31438;SDS011;18062;48.872;9.220;2024-03-25T06:15:41;2.93;;;1.93;;
31438;SDS011;18062;48.872;9.220;2024-03-25T06:18:07;4.00;;;2.33;;
31438;SDS011;18062;48.872;9.220;2024-03-25T06:20:33;3.90;;;1.87;;
31438;SDS011;18062;48.872;9.220;2024-03-25T06:22:59;3.40;;;2.10;;
31438;SDS011;18062;48.872;9.220;2024-03-25T06:25:26;4.27;;;1.87;;
31438;SDS011;18062;48.872;9.220;2024-03-25T06:27:53;5.07;;;2.40;;
31438;SDS011;18062;48.872;9.220;2024-03-25T06:30:19;2.33;;;2.03;;
31438;SDS011;18062;48.872;9.220;2024-03-25T06:33:03;4.27;;;2.43;;
31438;SDS011;18062;48.872;9.220;2024-03-25T06:35:48;3.30;;;2.27;;
31438;SDS011;18062;48.872;9.220;2024-03-25T06:38:14;4.43;;;2.33;;
31438;SDS011;18062;48.872;9.220;2024-03-25T06:40:40;2.30;;;1.90;;
31438;SDS011;18062;48.872;9.220;2024-03-25T06:43:06;7.37;;;2.37;;
31438;SDS011;18062;48.872;9.220;2024-03-25T06:45:32;5.93;;;2.90;;
31438;SDS011;18062;48.872;9.220;2024-03-25T06:47:58;6.07;;;2.27;;
31438;SDS011;18062;48.872;9.220;2024-03-25T06:50:24;5.33;;;2.40;;
31438;SDS011;18062;48.872;9.220;2024-03-25T06:52:50;5.43;;;2.60;;
31438;SDS011;18062;48.872;9.220;2024-03-25T06:55:16;5.20;;;2.53;;
31438;SDS011;18062;48.872;9.220;2024-03-25T06:57:47;4.40;;;2.37;;
31438;SDS011;18062;48.872;9.220;2024-03-25T07:00:13;2.87;;;2.13;;
31438;SDS011;18062;48.872;9.220;2024-03-25T07:02:39;3.27;;;2.50;;
31438;SDS011;18062;48.872;9.220;2024-03-25T07:05:06;4.27;;;2.60;;
31438;SDS011;18062;48.872;9.220;2024-03-25T07:07:32;5.50;;;3.10;;
31438;SDS011;18062;48.872;9.220;2024-03-25T07:09:59;5.83;;;2.67;;
31438;SDS011;18062;48.872;9.220;2024-03-25T07:12:25;4.03;;;2.60;;
31438;SDS011;18062;48.872;9.220;2024-03-25T07:14:52;5.60;;;2.93;;
31438;SDS011;18062;48.872;9.220;2024-03-25T07:17:18;2.47;;;2.20;;
31438;SDS011;18062;48.872;9.220;2024-03-25T07:19:46;6.40;;;2.57;;
31438;SDS011;18062;48.872;9.220;2024-03-25T07:22:12;8.43;;;3.63;;
31438;SDS011;18062;48.872;9.220;2024-03-25T07:24:38;4.67;;;2.53;;
31438;SDS011;18062;48.872;9.220;2024-03-25T07:27:04;8.43;;;2.67;;
31438;SDS011;18062;48.872;9.220;2024-03-25T07:29:31;5.57;;;2.70;;
31438;SDS011;18062;48.872;9.220;2024-03-25T07:31:57;6.40;;;2.73;;
31438;SDS011;18062;48.872;9.220;2024-03-25T07:34:23;5.77;;;2.17;;
31438;SDS011;18062;48.872;9.220;2024-03-25T07:36:49;6.23;;;2.93;;
31438;SDS011;18062;48.872;9.220;2024-03-25T07:39:15;4.47;;;2.37;;
31438;SDS011;18062;48.872;9.220;2024-03-25T07:41:41;5.77;;;2.53;;
31438;SDS011;18062;48.872;9.220;2024-03-25T07:44:07;3.97;;;2.23;;
31438;SDS011;18062;48.872;9.220;2024-03-25T07:46:34;3.70;;;2.27;;
31438;SDS011;18062;48.872;9.220;2024-03-25T07:49:00;5.93;;;2.60;;
31438;SDS011;18062;48.872;9.220;2024-03-25T07:51:26;2.90;;;1.90;;
31438;SDS011;18062;48.872;9.220;2024-03-25T07:53:52;3.10;;;1.93;;
31438;SDS011;18062;48.872;9.220;2024-03-25T07:56:19;3.77;;;2.57;;
31438;SDS011;18062;48.872;9.220;2024-03-25T07:58:45;2.33;;;1.80;;
31438;SDS011;18062;48.872;9.220;2024-03-25T08:01:11;4.63;;;2.50;;
31438;SDS011;18062;48.872;9.220;2024-03-25T08:03:37;3.63;;;2.00;;
31438;SDS011;18062;48.872;9.220;2024-03-25T08:06:03;4.27;;;2.00;;
31438;SDS011;18062;48.872;9.220;2024-03-25T08:08:29;4.13;;;2.00;;
31438;SDS011;18062;48.872;9.220;2024-03-25T08:10:55;3.30;;;1.60;;
31438;SDS011;18062;48.872;9.220;2024-03-25T08:13:21;4.50;;;1.73;;
31438;SDS011;18062;48.872;9.220;2024-03-25T08:15:47;2.63;;;1.53;;
31438;SDS011;18062;48.872;9.220;2024-03-25T08:18:13;3.37;;;1.67;;
31438;SDS011;18062;48.872;9.220;2024-03-25T08:20:39;2.03;;;1.30;;
31438;SDS011;18062;48.872;9.220;2024-03-25T08:23:06;2.70;;;1.40;;
31438;SDS011;18062;48.872;9.220;2024-03-25T08:25:32;3.87;;;1.40;;
31438;SDS011;18062;48.872;9.220;2024-03-25T08:27:58;2.47;;;1.40;;
31438;SDS011;18062;48.872;9.220;2024-03-25T08:30:24;1.80;;;1.40;;
31438;SDS011;18062;48.872;9.220;2024-03-25T08:32:51;2.23;;;1.30;;
31438;SDS011;18062;48.872;9.220;2024-03-25T08:35:17;1.70;;;1.33;;
31438;SDS011;18062;48.872;9.220;2024-03-25T08:37:43;2.43;;;1.30;;
31438;SDS011;18062;48.872;9.220;2024-03-25T08:40:09;2.47;;;1.20;;
31438;SDS011;18062;48.872;9.220;2024-03-25T08:42:35;2.17;;;1.50;;
31438;SDS011;18062;48.872;9.220;2024-03-25T08:45:01;2.60;;;1.30;;
31438;SDS011;18062;48.872;9.220;2024-03-25T08:47:27;6.23;;;1.73;;
31438;SDS011;18062;48.872;9.220;2024-03-25T08:49:53;2.13;;;1.30;;
31438;SDS011;18062;48.872;9.220;2024-03-25T08:52:19;1.90;;;1.20;;
31438;SDS011;18062;48.872;9.220;2024-03-25T08:54:45;2.63;;;1.40;;
31438;SDS011;18062;48.872;9.220;2024-03-25T08:57:11;3.37;;;1.33;;
31438;SDS011;18062;48.872;9.220;2024-03-25T08:59:37;1.67;;;1.27;;
31438;SDS011;18062;48.872;9.220;2024-03-25T09:02:03;2.80;;;1.40;;
31438;SDS011;18062;48.872;9.220;2024-03-25T09:04:29;3.17;;;1.43;;
31438;SDS011;18062;48.872;9.220;2024-03-25T09:06:56;2.47;;;1.40;;
31438;SDS011;18062;48.872;9.220;2024-03-25T09:09:22;3.13;;;1.20;;
31438;SDS011;18062;48.872;9.220;2024-03-25T09:12:07;1.20;;;1.00;;
31438;SDS011;18062;48.872;9.220;2024-03-25T09:14:33;1.63;;;1.03;;
31438;SDS011;18062;48.872;9.220;2024-03-25T09:16:59;1.37;;;1.10;;
31438;SDS011;18062;48.872;9.220;2024-03-25T09:19:26;1.83;;;1.00;;
31438;SDS011;18062;48.872;9.220;2024-03-25T09:21:52;2.17;;;1.43;;
31438;SDS011;18062;48.872;9.220;2024-03-25T09:24:18;4.63;;;1.40;;
31438;SDS011;18062;48.872;9.220;2024-03-25T09:26:44;4.27;;;3.63;;
31438;SDS011;18062;48.872;9.220;2024-03-25T09:29:11;4.67;;;1.77;;
31438;SDS011;18062;48.872;9.220;2024-03-25T09:31:38;1.70;;;1.40;;
31438;SDS011;18062;48.872;9.220;2024-03-25T09:34:04;3.00;;;1.50;;
31438;SDS011;18062;48.872;9.220;2024-03-25T09:36:30;3.25;;;1.33;;
31438;SDS011;18062;48.872;9.220;2024-03-25T09:38:56;3.05;;;1.42;;
31438;SDS011;18062;48.872;9.220;2024-03-25T09:41:22;2.75;;;1.17;;
31438;SDS011;18062;48.872;9.220;2024-03-25T09:43:52;4.28;;;1.50;;
31438;SDS011;18062;48.872;9.220;2024-03-25T09:46:18;2.88;;;1.25;;
31438;SDS011;18062;48.872;9.220;2024-03-25T09:48:44;2.03;;;1.30;;
31438;SDS011;18062;48.872;9.220;2024-03-25T09:51:10;2.63;;;1.15;;
31438;SDS011;18062;48.872;9.220;2024-03-25T09:53:36;2.13;;;1.20;;
31438;SDS011;18062;48.872;9.220;2024-03-25T09:56:03;1.13;;;1.05;;
31438;SDS011;18062;48.872;9.220;2024-03-25T09:58:29;2.00;;;1.35;;
31438;SDS011;18062;48.872;9.220;2024-03-25T10:00:57;2.03;;;1.30;;
31438;SDS011;18062;48.872;9.220;2024-03-25T10:03:24;2.85;;;1.20;;
31438;SDS011;18062;48.872;9.220;2024-03-25T10:05:51;1.70;;;1.30;;
31438;SDS011;18062;48.872;9.220;2024-03-25T10:08:23;1.35;;;1.00;;
31438;SDS011;18062;48.872;9.220;2024-03-25T10:10:55;2.35;;;1.23;;
31438;SDS011;18062;48.872;9.220;2024-03-25T10:13:21;2.42;;;1.30;;
31438;SDS011;18062;48.872;9.220;2024-03-25T10:15:47;1.27;;;1.05;;
31438;SDS011;18062;48.872;9.220;2024-03-25T10:18:14;3.70;;;1.20;;
31438;SDS011;18062;48.872;9.220;2024-03-25T10:20:49;1.83;;;1.00;;
31438;SDS011;18062;48.872;9.220;2024-03-25T10:23:15;1.70;;;1.20;;
31438;SDS011;18062;48.872;9.220;2024-03-25T10:25:47;1.90;;;1.10;;
31438;SDS011;18062;48.872;9.220;2024-03-25T10:28:13;2.42;;;1.30;;
31438;SDS011;18062;48.872;9.220;2024-03-25T10:30:40;2.30;;;1.20;;
31438;SDS011;18062;48.872;9.220;2024-03-25T10:33:07;2.83;;;1.30;;
31438;SDS011;18062;48.872;9.220;2024-03-25T10:35:33;2.58;;;1.10;;
31438;SDS011;18062;48.872;9.220;2024-03-25T10:38:00;2.00;;;1.42;;
31438;SDS011;18062;48.872;9.220;2024-03-25T10:40:27;2.25;;;1.45;;
31438;SDS011;18062;48.872;9.220;2024-03-25T10:42:55;2.10;;;1.75;;
31438;SDS011;18062;48.872;9.220;2024-03-25T10:45:26;3.72;;;1.45;;
31438;SDS011;18062;48.872;9.220;2024-03-25T10:47:53;3.15;;;1.40;;
31438;SDS011;18062;48.872;9.220;2024-03-25T10:50:20;2.58;;;1.30;;
31438;SDS011;18062;48.872;9.220;2024-03-25T10:52:50;1.80;;;1.42;;
31438;SDS011;18062;48.872;9.220;2024-03-25T10:55:17;2.22;;;1.30;;
31438;SDS011;18062;48.872;9.220;2024-03-25T10:57:44;1.75;;;1.30;;
31438;SDS011;18062;48.872;9.220;2024-03-25T11:00:10;1.80;;;1.58;;
31438;SDS011;18062;48.872;9.220;2024-03-25T11:02:40;3.42;;;1.70;;
31438;SDS011;18062;48.872;9.220;2024-03-25T11:05:06;2.90;;;1.70;;
31438;SDS011;18062;48.872;9.220;2024-03-25T11:07:35;2.13;;;1.50;;
31438;SDS011;18062;48.872;9.220;2024-03-25T11:10:04;3.00;;;1.35;;
31438;SDS011;18062;48.872;9.220;2024-03-25T11:12:36;1.48;;;1.00;;
31438;SDS011;18062;48.872;9.220;2024-03-25T11:15:03;2.22;;;1.13;;
31438;SDS011;18062;48.872;9.220;2024-03-25T11:17:29;2.92;;;1.40;;
31438;SDS011;18062;48.872;9.220;2024-03-25T11:20:05;2.30;;;1.17;;
31438;SDS011;18062;48.872;9.220;2024-03-25T11:22:32;1.27;;;1.13;;
31438;SDS011;18062;48.872;9.220;2024-03-25T11:25:04;1.60;;;1.25;;
31438;SDS011;18062;48.872;9.220;2024-03-25T11:27:31;2.25;;;1.60;;
31438;SDS011;18062;48.872;9.220;2024-03-25T11:29:57;2.25;;;1.17;;
31438;SDS011;18062;48.872;9.220;2024-03-25T11:32:23;1.95;;;1.20;;
31438;SDS011;18062;48.872;9.220;2024-03-25T11:34:50;1.80;;;1.20;;
31438;SDS011;18062;48.872;9.220;2024-03-25T11:37:17;3.20;;;1.55;;
31438;SDS011;18062;48.872;9.220;2024-03-25T11:39:43;2.22;;;1.67;;
31438;SDS011;18062;48.872;9.220;2024-03-25T11:42:09;2.67;;;1.30;;
31438;SDS011;18062;48.872;9.220;2024-03-25T11:44:36;1.77;;;1.42;;
31438;SDS011;18062;48.872;9.220;2024-03-25T11:47:03;2.03;;;1.48;;
31438;SDS011;18062;48.872;9.220;2024-03-25T11:49:30;2.17;;;1.40;;
31438;SDS011;18062;48.872;9.220;2024-03-25T11:51:58;2.17;;;1.20;;
31438;SDS011;18062;48.872;9.220;2024-03-25T11:54:26;1.10;;;1.00;;
31438;SDS011;18062;48.872;9.220;2024-03-25T11:56:53;1.67;;;1.27;;
31438;SDS011;18062;48.872;9.220;2024-03-25T11:59:20;1.42;;;1.20;;
31438;SDS011;18062;48.872;9.220;2024-03-25T12:01:46;1.40;;;1.27;;
31438;SDS011;18062;48.872;9.220;2024-03-25T12:04:16;4.13;;;1.15;;
31438;SDS011;18062;48.872;9.220;2024-03-25T12:06:42;2.10;;;1.40;;
31438;SDS011;18062;48.872;9.220;2024-03-25T12:09:08;1.65;;;1.33;;
31438;SDS011;18062;48.872;9.220;2024-03-25T12:11:53;2.05;;;1.35;;
31438;SDS011;18062;48.872;9.220;2024-03-25T12:14:21;2.22;;;1.40;;
31438;SDS011;18062;48.872;9.220;2024-03-25T12:16:48;1.25;;;1.02;;
31438;SDS011;18062;48.872;9.220;2024-03-25T12:19:15;3.97;;;1.50;;
31438;SDS011;18062;48.872;9.220;2024-03-25T12:21:43;1.45;;;1.35;;
31438;SDS011;18062;48.872;9.220;2024-03-25T12:24:09;2.15;;;1.50;;
31438;SDS011;18062;48.872;9.220;2024-03-25T12:26:36;1.42;;;1.33;;
31438;SDS011;18062;48.872;9.220;2024-03-25T12:29:02;2.60;;;1.58;;
31438;SDS011;18062;48.872;9.220;2024-03-25T12:31:29;3.88;;;1.38;;
31438;SDS011;18062;48.872;9.220;2024-03-25T12:33:55;3.30;;;1.40;;
31438;SDS011;18062;48.872;9.220;2024-03-25T12:36:21;2.15;;;1.20;;
31438;SDS011;18062;48.872;9.220;2024-03-25T12:38:54;1.38;;;1.15;;
31438;SDS011;18062;48.872;9.220;2024-03-25T12:41:21;2.50;;;1.33;;
31438;SDS011;18062;48.872;9.220;2024-03-25T12:43:48;2.03;;;1.50;;
31438;SDS011;18062;48.872;9.220;2024-03-25T12:46:15;2.17;;;1.45;;
31438;SDS011;18062;48.872;9.220;2024-03-25T12:48:41;6.22;;;1.40;;
31438;SDS011;18062;48.872;9.220;2024-03-25T12:51:16;2.15;;;1.20;;
31438;SDS011;18062;48.872;9.220;2024-03-25T12:53:42;3.45;;;1.40;;
31438;SDS011;18062;48.872;9.220;2024-03-25T12:56:08;1.90;;;1.27;;
31438;SDS011;18062;48.872;9.220;2024-03-25T12:58:34;2.45;;;1.20;;
31438;SDS011;18062;48.872;9.220;2024-03-25T13:01:00;2.75;;;1.40;;
31438;SDS011;18062;48.872;9.220;2024-03-25T13:03:27;1.55;;;1.30;;
31438;SDS011;18062;48.872;9.220;2024-03-25T13:05:53;2.00;;;1.55;;
31438;SDS011;18062;48.872;9.220;2024-03-25T13:08:24;2.42;;;1.30;;
31438;SDS011;18062;48.872;9.220;2024-03-25T13:10:50;1.70;;;1.38;;
31438;SDS011;18062;48.872;9.220;2024-03-25T13:13:16;1.60;;;1.30;;
31438;SDS011;18062;48.872;9.220;2024-03-25T13:15:42;1.95;;;1.50;;
31438;SDS011;18062;48.872;9.220;2024-03-25T13:18:08;2.42;;;1.40;;
31438;SDS011;18062;48.872;9.220;2024-03-25T13:20:37;1.58;;;1.42;;
31438;SDS011;18062;48.872;9.220;2024-03-25T13:23:03;1.92;;;1.55;;
31438;SDS011;18062;48.872;9.220;2024-03-25T13:25:29;1.25;;;1.20;;
31438;SDS011;18062;48.872;9.220;2024-03-25T13:27:56;1.33;;;1.20;;
31438;SDS011;18062;48.872;9.220;2024-03-25T13:30:22;1.30;;;1.20;;
31438;SDS011;18062;48.872;9.220;2024-03-25T13:32:49;1.35;;;1.10;;
31438;SDS011;18062;48.872;9.220;2024-03-25T13:35:15;1.52;;;1.40;;
31438;SDS011;18062;48.872;9.220;2024-03-25T13:37:43;1.60;;;1.35;;
31438;SDS011;18062;48.872;9.220;2024-03-25T13:40:09;1.40;;;1.20;;
31438;SDS011;18062;48.872;9.220;2024-03-25T13:42:36;2.33;;;1.27;;
31438;SDS011;18062;48.872;9.220;2024-03-25T13:45:03;1.67;;;1.20;;
31438;SDS011;18062;48.872;9.220;2024-03-25T13:47:30;1.48;;;1.13;;
31438;SDS011;18062;48.872;9.220;2024-03-25T13:50:02;1.40;;;1.30;;
31438;SDS011;18062;48.872;9.220;2024-03-25T13:52:28;1.55;;;1.08;;
31438;SDS011;18062;48.872;9.220;2024-03-25T13:54:56;2.47;;;1.20;;
31438;SDS011;18062;48.872;9.220;2024-03-25T13:57:22;1.70;;;1.10;;
31438;SDS011;18062;48.872;9.220;2024-03-25T13:59:48;2.30;;;1.30;;
31438;SDS011;18062;48.872;9.220;2024-03-25T14:02:15;3.38;;;1.50;;
31438;SDS011;18062;48.872;9.220;2024-03-25T14:04:41;1.73;;;1.10;;
31438;SDS011;18062;48.872;9.220;2024-03-25T14:07:07;1.70;;;1.27;;
31438;SDS011;18062;48.872;9.220;2024-03-25T14:09:33;2.20;;;1.05;;
31438;SDS011;18062;48.872;9.220;2024-03-25T14:12:00;2.30;;;1.05;;
31438;SDS011;18062;48.872;9.220;2024-03-25T14:14:26;3.00;;;1.27;;
31438;SDS011;18062;48.872;9.220;2024-03-25T14:16:52;1.30;;;1.20;;
31438;SDS011;18062;48.872;9.220;2024-03-25T14:19:18;1.50;;;1.30;;
31438;SDS011;18062;48.872;9.220;2024-03-25T14:21:44;2.85;;;1.20;;
31438;SDS011;18062;48.872;9.220;2024-03-25T14:24:10;1.60;;;1.10;;
31438;SDS011;18062;48.872;9.220;2024-03-25T14:26:36;1.73;;;1.20;;
31438;SDS011;18062;48.872;9.220;2024-03-25T14:29:02;1.20;;;1.10;;
31438;SDS011;18062;48.872;9.220;2024-03-25T14:31:28;1.45;;;1.17;;
31438;SDS011;18062;48.872;9.220;2024-03-25T14:33:55;1.63;;;1.38;;
31438;SDS011;18062;48.872;9.220;2024-03-25T14:36:21;1.83;;;1.10;;
31438;SDS011;18062;48.872;9.220;2024-03-25T14:38:47;2.08;;;1.20;;
31438;SDS011;18062;48.872;9.220;2024-03-25T14:41:18;0.98;;;0.80;;
31438;SDS011;18062;48.872;9.220;2024-03-25T14:43:44;1.55;;;1.20;;
31438;SDS011;18062;48.872;9.220;2024-03-25T14:46:10;1.25;;;0.93;;